Time;durP1;ratioP1;P1;durP2;ratioP2;P2;SDS_P1;SDS_P2;PMS_P1;PMS_P2;Temp;Humidity;BMP_temperature;BMP_pressure;BME280_temperature;BME280_humidity;BME280_pressure;Samples;Min_cycle;Max_cycle;Signal;HPM_P1;HPM_P2
2022/10/26 00:02:19;;;;;;;6.90;3.30;;;;;;;;;;5012649;28;20038;-43
2022/10/26 00:04:49;;;;;;;9.45;3.75;;;;;;;;;;5023562;28;20080;-44
2022/10/26 00:07:29;;;;;;;9.13;3.30;;;;;;;;;;5011994;28;20069;-45
2022/10/26 00:10:10;;;;;;;6.68;3.72;;;;;;;;;;5010193;28;20065;-45
2022/10/26 00:12:40;;;;;;;6.03;3.22;;;;;;;;;;5013819;28;20042;-44
2022/10/26 00:15:07;;;;;;;7.43;3.05;;;;;;;;;;5003055;28;20411;-46
2022/10/26 00:17:36;;;;;;;9.57;3.80;;;;;;;;;;5010416;28;20065;-45
2022/10/26 00:20:04;;;;;;;8.77;3.20;;;;;;;;;;5003694;28;20129;-44
2022/10/26 00:22:35;;;;;;;9.27;3.60;;;;;;;;;;4991556;28;20547;-45
2022/10/26 00:25:03;;;;;;;9.35;3.65;;;;;;;;;;5003017;28;20062;-45
2022/10/26 00:27:33;;;;;;;8.30;3.97;;;;;;;;;;5006528;28;20054;-43
2022/10/26 00:30:03;;;;;;;7.38;3.45;;;;;;;;;;5000682;28;20057;-45
2022/10/26 00:32:31;;;;;;;7.85;3.72;;;;;;;;;;5011391;28;20443;-44
2022/10/26 00:34:59;;;;;;;8.05;3.55;;;;;;;;;;4992719;28;20062;-43
2022/10/26 00:37:25;;;;;;;8.55;4.25;;;;;;;;;;5001145;28;20053;-48
2022/10/26 00:40:07;;;;;;;8.20;3.80;;;;;;;;;;5002872;28;20058;-45
2022/10/26 00:42:36;;;;;;;7.85;3.67;;;;;;;;;;5006442;28;20129;-48
2022/10/26 00:45:05;;;;;;;8.02;3.72;;;;;;;;;;5000898;28;20642;-45
2022/10/26 00:47:42;;;;;;;8.32;3.70;;;;;;;;;;5001293;28;20094;-45
2022/10/26 00:50:12;;;;;;;6.85;3.78;;;;;;;;;;5011577;28;20068;-45
2022/10/26 00:52:42;;;;;;;7.57;3.78;;;;;;;;;;5007785;28;20578;-45
2022/10/26 00:55:14;;;;;;;6.28;3.50;;;;;;;;;;5011822;28;20054;-45
2022/10/26 00:57:44;;;;;;;7.43;3.83;;;;;;;;;;5023871;28;20521;-45
2022/10/26 01:00:14;;;;;;;6.03;3.60;;;;;;;;;;5021260;28;20061;-45
2022/10/26 01:02:43;;;;;;;7.25;3.58;;;;;;;;;;5011531;28;20049;-45
2022/10/26 01:05:11;;;;;;;5.63;3.15;;;;;;;;;;5015969;28;20103;-44
2022/10/26 01:07:41;;;;;;;5.13;3.13;;;;;;;;;;5006711;28;20395;-47
2022/10/26 01:10:12;;;;;;;6.72;3.42;;;;;;;;;;5017037;28;20050;-48
2022/10/26 01:12:53;;;;;;;4.95;3.25;;;;;;;;;;5008659;28;20086;-48
2022/10/26 01:15:24;;;;;;;6.90;3.22;;;;;;;;;;5003477;28;20060;-51
2022/10/26 01:18:02;;;;;;;5.88;2.92;;;;;;;;;;5022565;28;20045;-47
2022/10/26 01:20:40;;;;;;;7.30;3.50;;;;;;;;;;5007303;28;20053;-48
2022/10/26 01:23:10;;;;;;;8.80;3.10;;;;;;;;;;4992032;28;20051;-49
2022/10/26 01:25:58;;;;;;;6.32;2.92;;;;;;;;;;5007907;28;20046;-47
2022/10/26 01:28:44;;;;;;;7.18;3.38;;;;;;;;;;5028734;28;20089;-47
2022/10/26 01:31:20;;;;;;;7.95;3.47;;;;;;;;;;5029444;28;20053;-50
2022/10/26 01:33:58;;;;;;;8.25;3.30;;;;;;;;;;5008618;28;20045;-48
2022/10/26 01:36:33;;;;;;;9.60;3.25;;;;;;;;;;4996518;28;20054;-47
2022/10/26 01:39:04;;;;;;;8.15;2.78;;;;;;;;;;5014132;28;20054;-47
2022/10/26 01:41:35;;;;;;;7.22;3.10;;;;;;;;;;5015522;28;20049;-47
2022/10/26 01:44:05;;;;;;;7.80;3.50;;;;;;;;;;5011503;28;20050;-45
2022/10/26 01:46:40;;;;;;;8.35;3.35;;;;;;;;;;4996117;28;20054;-46
2022/10/26 01:49:11;;;;;;;;;;;;;;;;;;5003061;28;20057;-45
2022/10/26 01:51:40;;;;;;;6.63;3.35;;;;;;;;;;5015331;28;19921;-45
2022/10/26 01:54:08;;;;;;;6.85;3.25;;;;;;;;;;5004223;28;20054;-44
2022/10/26 01:56:36;;;;;;;6.95;3.22;;;;;;;;;;4998062;28;20062;-48
2022/10/26 01:59:12;;;;;;;6.82;3.50;;;;;;;;;;5006480;28;20049;-47
2022/10/26 02:02:00;;;;;;;7.65;2.80;;;;;;;;;;5011452;28;20471;-46
2022/10/26 02:04:41;;;;;;;6.95;3.35;;;;;;;;;;5013318;28;20457;-47
2022/10/26 02:07:19;;;;;;;6.88;3.42;;;;;;;;;;5000826;28;20511;-46
2022/10/26 02:10:04;;;;;;;7.63;3.53;;;;;;;;;;5006560;28;20050;-45
2022/10/26 02:12:37;;;;;;;9.35;3.30;;;;;;;;;;5008548;28;20046;-44
2022/10/26 02:15:15;;;;;;;5.88;3.33;;;;;;;;;;5006010;28;20221;-45
2022/10/26 02:17:51;;;;;;;8.15;3.05;;;;;;;;;;5014626;28;20136;-46
2022/10/26 02:20:20;;;;;;;10.57;3.67;;;;;;;;;;5014855;28;20050;-46
2022/10/26 02:22:48;;;;;;;10.77;3.90;;;;;;;;;;5002086;28;20482;-46
2022/10/26 02:25:25;;;;;;;11.32;4.00;;;;;;;;;;5014707;28;20065;-46
2022/10/26 02:27:56;;;;;;;7.60;3.83;;;;;;;;;;5008815;28;20510;-46
2022/10/26 02:30:26;;;;;;;10.50;4.25;;;;;;;;;;5015017;28;20115;-46
2022/10/26 02:33:05;;;;;;;9.00;4.10;;;;;;;;;;5000508;28;20049;-48
2022/10/26 02:35:35;;;;;;;9.80;4.68;;;;;;;;;;5000840;28;20058;-44
2022/10/26 02:38:04;;;;;;;12.10;4.38;;;;;;;;;;5001082;28;20053;-44
2022/10/26 02:40:32;;;;;;;7.45;4.97;;;;;;;;;;5017098;28;20061;-45
2022/10/26 02:43:03;;;;;;;8.43;4.45;;;;;;;;;;5018874;28;20053;-43
2022/10/26 02:45:33;;;;;;;11.23;4.82;;;;;;;;;;5004234;28;20050;-44
2022/10/26 02:48:01;;;;;;;10.95;5.63;;;;;;;;;;5026219;28;20130;-44
2022/10/26 02:50:33;;;;;;;8.85;4.97;;;;;;;;;;5016059;28;20359;-45
2022/10/26 02:53:07;;;;;;;9.90;5.85;;;;;;;;;;5014242;28;20046;-45
2022/10/26 02:55:39;;;;;;;11.35;5.60;;;;;;;;;;5027774;28;20136;-46
2022/10/26 02:58:09;;;;;;;13.85;5.88;;;;;;;;;;5013761;28;20054;-46
2022/10/26 03:00:38;;;;;;;10.98;6.30;;;;;;;;;;5027502;28;20060;-45
2022/10/26 03:03:08;;;;;;;14.95;6.38;;;;;;;;;;5013742;28;20443;-46
2022/10/26 03:05:36;;;;;;;14.13;7.18;;;;;;;;;;4999753;28;20054;-44
2022/10/26 03:08:04;;;;;;;11.98;7.32;;;;;;;;;;5014282;28;20077;-45
2022/10/26 03:10:34;;;;;;;18.70;7.05;;;;;;;;;;5013046;28;20133;-46
2022/10/26 03:13:04;;;;;;;13.43;6.38;;;;;;;;;;5002041;28;20042;-49
2022/10/26 03:15:30;;;;;;;9.63;4.90;;;;;;;;;;5011539;28;20077;-46
2022/10/26 03:18:00;;;;;;;12.13;6.82;;;;;;;;;;5014101;28;20064;-45
2022/10/26 03:20:34;;;;;;;15.18;6.00;;;;;;;;;;5014849;28;20042;-46
2022/10/26 03:23:01;;;;;;;14.43;7.05;;;;;;;;;;5006919;28;20042;-47
2022/10/26 03:25:28;;;;;;;13.43;7.28;;;;;;;;;;5010171;28;20054;-47
2022/10/26 03:27:59;;;;;;;14.57;8.43;;;;;;;;;;5020723;28;20045;-46
2022/10/26 03:30:29;;;;;;;18.15;7.25;;;;;;;;;;5015311;28;20125;-44
2022/10/26 03:32:59;;;;;;;12.10;6.72;;;;;;;;;;5013447;28;20042;-45
2022/10/26 03:35:27;;;;;;;14.70;8.00;;;;;;;;;;5013461;28;20104;-45
2022/10/26 03:38:03;;;;;;;17.42;8.13;;;;;;;;;;5013458;28;20063;-46
2022/10/26 03:40:30;;;;;;;;;;;;;;;;;;5012127;28;20077;-45
2022/10/26 03:42:58;;;;;;;17.27;8.40;;;;;;;;;;5013426;28;19926;-46
2022/10/26 03:45:28;;;;;;;13.50;6.82;;;;;;;;;;5001818;28;20060;-45
2022/10/26 03:47:55;;;;;;;13.63;7.90;;;;;;;;;;5013477;28;20109;-47
2022/10/26 03:50:23;;;;;;;14.73;6.88;;;;;;;;;;5012055;28;20060;-50
2022/10/26 03:52:51;;;;;;;19.48;8.80;;;;;;;;;;5004597;28;20073;-46
2022/10/26 03:55:23;;;;;;;18.40;8.00;;;;;;;;;;5011179;28;20065;-47
2022/10/26 03:57:53;;;;;;;16.27;7.70;;;;;;;;;;5019964;28;20062;-46
2022/10/26 04:00:22;;;;;;;17.15;7.30;;;;;;;;;;5012546;28;20064;-46
2022/10/26 04:02:54;;;;;;;14.10;7.13;;;;;;;;;;5013291;28;20140;-45
2022/10/26 04:05:25;;;;;;;16.80;6.82;;;;;;;;;;5012810;28;20050;-46
2022/10/26 04:07:57;;;;;;;16.10;7.05;;;;;;;;;;5013206;28;20050;-45
2022/10/26 04:10:39;;;;;;;21.25;8.20;;;;;;;;;;5012200;28;20053;-45
2022/10/26 04:13:06;;;;;;;11.20;5.35;;;;;;;;;;4995503;28;20046;-45
2022/10/26 04:15:34;;;;;;;12.55;6.75;;;;;;;;;;4994897;28;20404;-46
2022/10/26 04:18:02;;;;;;;11.93;5.55;;;;;;;;;;5014341;28;20073;-45
2022/10/26 04:20:33;;;;;;;12.05;5.80;;;;;;;;;;4997775;28;20061;-46
2022/10/26 04:23:02;;;;;;;13.80;6.47;;;;;;;;;;5001500;28;20355;-44
2022/10/26 04:25:43;;;;;;;10.40;5.43;;;;;;;;;;4998756;28;20824;-46
2022/10/26 04:28:13;;;;;;;12.32;5.55;;;;;;;;;;5005888;28;20049;-46
2022/10/26 04:30:41;;;;;;;12.70;6.13;;;;;;;;;;5012037;28;20054;-46
2022/10/26 04:33:11;;;;;;;10.50;5.43;;;;;;;;;;5003701;28;20058;-50
2022/10/26 04:35:39;;;;;;;9.05;5.35;;;;;;;;;;5007640;28;20054;-49
2022/10/26 04:38:09;;;;;;;14.55;6.75;;;;;;;;;;5009569;28;20056;-46
2022/10/26 04:40:38;;;;;;;13.32;5.93;;;;;;;;;;5007500;28;20092;-44
2022/10/26 04:43:06;;;;;;;16.17;7.65;;;;;;;;;;5001117;28;20052;-45
2022/10/26 04:45:35;;;;;;;15.77;8.27;;;;;;;;;;5012767;28;20057;-46
2022/10/26 04:48:04;;;;;;;17.52;8.07;;;;;;;;;;5005812;28;20060;-45
2022/10/26 04:50:31;;;;;;;14.98;7.80;;;;;;;;;;5012533;28;20053;-43
2022/10/26 04:52:59;;;;;;;16.83;8.10;;;;;;;;;;5010592;28;20038;-45
2022/10/26 04:55:26;;;;;;;16.30;7.57;;;;;;;;;;5008927;28;20046;-43
2022/10/26 04:58:00;;;;;;;14.65;8.60;;;;;;;;;;5007573;28;20053;-45
2022/10/26 05:00:40;;;;;;;18.55;8.52;;;;;;;;;;5016217;28;20136;-44
2022/10/26 05:03:09;;;;;;;13.57;7.28;;;;;;;;;;5014891;28;20058;-45
2022/10/26 05:05:39;;;;;;;14.52;8.13;;;;;;;;;;5026702;28;20466;-47
2022/10/26 05:08:09;;;;;;;16.15;6.95;;;;;;;;;;5021302;28;20112;-46
2022/10/26 05:10:37;;;;;;;17.45;7.88;;;;;;;;;;5016163;28;20061;-45
2022/10/26 05:13:08;;;;;;;12.77;6.65;;;;;;;;;;5018234;28;20053;-43
2022/10/26 05:15:36;;;;;;;15.15;7.05;;;;;;;;;;5011147;28;20142;-44
2022/10/26 05:18:11;;;;;;;13.05;5.82;;;;;;;;;;5015717;28;20050;-43
2022/10/26 05:20:39;;;;;;;14.38;5.70;;;;;;;;;;5014379;28;20046;-44
2022/10/26 05:23:17;;;;;;;15.48;7.07;;;;;;;;;;5015301;28;20447;-44
2022/10/26 05:25:47;;;;;;;12.85;5.50;;;;;;;;;;5029392;28;20056;-44
2022/10/26 05:28:22;;;;;;;10.95;5.63;;;;;;;;;;5016153;28;20081;-45
2022/10/26 05:30:52;;;;;;;9.20;5.10;;;;;;;;;;5015343;28;20049;-44
2022/10/26 05:33:20;;;;;;;14.45;6.47;;;;;;;;;;5015821;28;20050;-47
2022/10/26 05:35:47;;;;;;;13.43;5.95;;;;;;;;;;4999430;28;20054;-44
2022/10/26 05:38:17;;;;;;;12.05;6.03;;;;;;;;;;5000599;28;20057;-45
2022/10/26 05:40:48;;;;;;;12.27;5.72;;;;;;;;;;5015103;28;20054;-44
2022/10/26 05:43:26;;;;;;;13.35;6.13;;;;;;;;;;5015739;28;20045;-43
2022/10/26 05:45:52;;;;;;;14.50;6.80;;;;;;;;;;5003987;28;20045;-45
2022/10/26 05:48:23;;;;;;;14.10;5.88;;;;;;;;;;5014413;28;20459;-47
2022/10/26 05:50:51;;;;;;;12.50;5.82;;;;;;;;;;5015112;28;20046;-45
2022/10/26 05:53:19;;;;;;;11.35;5.50;;;;;;;;;;5004640;28;20050;-44
2022/10/26 05:55:49;;;;;;;12.60;6.15;;;;;;;;;;5014832;28;20060;-45
2022/10/26 05:58:31;;;;;;;14.73;6.13;;;;;;;;;;5014471;28;20131;-44
2022/10/26 06:01:06;;;;;;;12.23;5.90;;;;;;;;;;5015397;28;20049;-45
2022/10/26 06:03:42;;;;;;;16.20;6.75;;;;;;;;;;5015041;28;20069;-44
2022/10/26 06:06:12;;;;;;;13.65;6.22;;;;;;;;;;5002350;28;20049;-44
2022/10/26 06:08:41;;;;;;;12.82;6.45;;;;;;;;;;5014108;28;20085;-44
2022/10/26 06:11:12;;;;;;;9.80;5.40;;;;;;;;;;5008140;28;20145;-44
2022/10/26 06:13:44;;;;;;;13.00;5.88;;;;;;;;;;5021477;28;20124;-44
2022/10/26 06:16:23;;;;;;;11.32;5.68;;;;;;;;;;5020440;28;20132;-43
2022/10/26 06:18:56;;;;;;;15.15;6.63;;;;;;;;;;5011403;28;20054;-44
2022/10/26 06:21:53;;;;;;;15.40;6.40;;;;;;;;;;5014669;28;20058;-43
2022/10/26 06:24:36;;;;;;;14.60;5.25;;;;;;;;;;5011691;28;20057;-44
2022/10/26 06:27:10;;;;;;;12.85;5.47;;;;;;;;;;5018800;28;20046;-44
2022/10/26 06:29:58;;;;;;;12.95;6.25;;;;;;;;;;4999053;28;20133;-45
2022/10/26 06:32:29;;;;;;;13.05;5.45;;;;;;;;;;4997838;28;20054;-45
2022/10/26 06:35:01;;;;;;;11.70;5.65;;;;;;;;;;4998420;28;20053;-44
2022/10/26 06:37:29;;;;;;;9.65;4.57;;;;;;;;;;5004460;28;20061;-46
2022/10/26 06:40:00;;;;;;;9.57;4.45;;;;;;;;;;5012953;28;20060;-46
2022/10/26 06:42:27;;;;;;;7.50;3.72;;;;;;;;;;5012936;28;20065;-45
2022/10/26 06:44:58;;;;;;;12.57;5.07;;;;;;;;;;5002144;28;20046;-46
2022/10/26 06:47:30;;;;;;;12.35;4.13;;;;;;;;;;5006109;28;20062;-46
2022/10/26 06:50:03;;;;;;;12.07;4.15;;;;;;;;;;5020990;28;20462;-46
2022/10/26 06:52:34;;;;;;;9.43;3.45;;;;;;;;;;5019474;28;20053;-45
2022/10/26 06:55:05;;;;;;;8.50;3.70;;;;;;;;;;5014024;28;20053;-44
2022/10/26 06:57:34;;;;;;;6.55;3.40;;;;;;;;;;5004931;28;20124;-43
2022/10/26 07:00:05;;;;;;;10.50;3.53;;;;;;;;;;5012072;28;20068;-46
2022/10/26 07:02:35;;;;;;;8.30;3.33;;;;;;;;;;5016046;28;20049;-45
2022/10/26 07:05:03;;;;;;;9.95;3.10;;;;;;;;;;5002390;28;20050;-45
2022/10/26 07:07:40;;;;;;;9.60;3.13;;;;;;;;;;5008572;28;20154;-43
2022/10/26 07:10:11;;;;;;;9.15;3.60;;;;;;;;;;5003126;28;20141;-44
2022/10/26 07:12:37;;;;;;;8.32;2.40;;;;;;;;;;4997851;28;20057;-44
2022/10/26 07:15:21;;;;;;;3.88;2.33;;;;;;;;;;5003550;28;20057;-44
2022/10/26 07:17:48;;;;;;;6.55;2.60;;;;;;;;;;5003099;28;20606;-45
2022/10/26 07:20:17;;;;;;;6.00;2.00;;;;;;;;;;5011337;28;20061;-44
2022/10/26 07:22:44;;;;;;;5.60;2.28;;;;;;;;;;5022434;28;20046;-45
2022/10/26 07:25:14;;;;;;;6.05;1.80;;;;;;;;;;5016978;28;20050;-49
2022/10/26 07:27:42;;;;;;;8.35;2.15;;;;;;;;;;5014083;28;20061;-44
2022/10/26 07:30:12;;;;;;;4.13;1.80;;;;;;;;;;5018550;28;20053;-44
2022/10/26 07:32:42;;;;;;;3.88;1.73;;;;;;;;;;4998169;28;20046;-46
2022/10/26 07:35:11;;;;;;;3.75;1.83;;;;;;;;;;5003744;28;20050;-44
2022/10/26 07:37:39;;;;;;;4.97;2.28;;;;;;;;;;5003616;28;20049;-46
2022/10/26 07:40:07;;;;;;;4.20;1.58;;;;;;;;;;5012248;28;20053;-45
2022/10/26 07:42:35;;;;;;;7.05;2.63;;;;;;;;;;5008502;28;20076;-44
2022/10/26 07:45:06;;;;;;;5.43;1.55;;;;;;;;;;5001311;28;20048;-46
2022/10/26 07:47:36;;;;;;;4.90;1.77;;;;;;;;;;5013110;28;20065;-44
2022/10/26 07:50:07;;;;;;;6.82;1.80;;;;;;;;;;5011870;28;20055;-46
2022/10/26 07:52:35;;;;;;;4.75;2.30;;;;;;;;;;5005535;28;20044;-45
2022/10/26 07:55:05;;;;;;;10.15;1.90;;;;;;;;;;5018354;28;20053;-47
2022/10/26 07:57:33;;;;;;;9.82;2.22;;;;;;;;;;5002436;28;20494;-46
2022/10/26 08:00:00;;;;;;;4.75;1.55;;;;;;;;;;5012034;28;20095;-44
2022/10/26 08:02:28;;;;;;;5.07;1.50;;;;;;;;;;5009740;28;20463;-44
2022/10/26 08:05:10;;;;;;;5.93;2.03;;;;;;;;;;5010002;28;20049;-46
2022/10/26 08:07:40;;;;;;;6.65;2.10;;;;;;;;;;5011302;28;20062;-45
2022/10/26 08:10:11;;;;;;;8.65;2.33;;;;;;;;;;5010089;28;20077;-46
2022/10/26 08:12:39;;;;;;;6.97;2.10;;;;;;;;;;5022227;28;20144;-46
2022/10/26 08:15:07;;;;;;;3.88;1.65;;;;;;;;;;5011120;28;20645;-46
2022/10/26 08:17:35;;;;;;;5.88;2.30;;;;;;;;;;5011083;28;20065;-47
2022/10/26 08:20:12;;;;;;;7.28;2.20;;;;;;;;;;5004274;28;20519;-46
2022/10/26 08:22:39;;;;;;;5.35;2.20;;;;;;;;;;4995824;28;20050;-45
2022/10/26 08:25:08;;;;;;;4.70;2.05;;;;;;;;;;5017759;28;20045;-47
2022/10/26 08:27:37;;;;;;;5.35;1.83;;;;;;;;;;5018992;28;20206;-46
2022/10/26 08:30:07;;;;;;;6.85;2.25;;;;;;;;;;5019333;28;20057;-45
2022/10/26 08:32:34;;;;;;;4.78;2.10;;;;;;;;;;4998936;28;20796;-44
2022/10/26 08:35:07;;;;;;;3.90;1.88;;;;;;;;;;5017466;28;20042;-48
2022/10/26 08:37:37;;;;;;;4.63;1.80;;;;;;;;;;5002401;28;20066;-47
2022/10/26 08:40:06;;;;;;;7.78;2.22;;;;;;;;;;5007956;28;20132;-45
2022/10/26 08:42:38;;;;;;;8.38;2.60;;;;;;;;;;5009601;28;20108;-47
2022/10/26 08:45:11;;;;;;;6.65;2.75;;;;;;;;;;4996179;28;20038;-46
2022/10/26 08:47:43;;;;;;;5.22;2.05;;;;;;;;;;5012205;28;20053;-44
2022/10/26 08:50:27;;;;;;;5.88;2.50;;;;;;;;;;5014782;28;20376;-45
2022/10/26 08:53:01;;;;;;;4.63;2.10;;;;;;;;;;5001779;28;20378;-45
2022/10/26 08:55:30;;;;;;;7.72;3.00;;;;;;;;;;5002890;28;20046;-44
2022/10/26 08:58:00;;;;;;;8.30;2.28;;;;;;;;;;5001594;28;20073;-46
2022/10/26 09:00:33;;;;;;;6.97;2.80;;;;;;;;;;4996433;28;20061;-44
2022/10/26 09:03:02;;;;;;;9.48;2.17;;;;;;;;;;5010073;28;20058;-46
2022/10/26 09:05:47;;;;;;;3.67;1.90;;;;;;;;;;5009910;28;20049;-45
2022/10/26 09:08:25;;;;;;;15.50;3.00;;;;;;;;;;5007932;28;20046;-44
2022/10/26 09:10:58;;;;;;;6.78;2.38;;;;;;;;;;5003879;28;20725;-43
2022/10/26 09:13:28;;;;;;;7.22;2.40;;;;;;;;;;5000911;28;20049;-45
2022/10/26 09:16:16;;;;;;;5.13;2.63;;;;;;;;;;5013970;28;20057;-48
2022/10/26 09:18:53;;;;;;;3.65;1.90;;;;;;;;;;5004612;28;20061;-45
2022/10/26 09:21:30;;;;;;;7.30;2.53;;;;;;;;;;5021331;28;20049;-47
2022/10/26 09:24:02;;;;;;;5.45;2.70;;;;;;;;;;5014954;28;20065;-46
2022/10/26 09:26:39;;;;;;;8.98;2.40;;;;;;;;;;5019585;28;20413;-46
2022/10/26 09:29:10;;;;;;;11.40;3.67;;;;;;;;;;5005825;28;20057;-46
2022/10/26 09:31:48;;;;;;;6.72;1.92;;;;;;;;;;5011857;28;20067;-46
2022/10/26 09:34:18;;;;;;;6.50;2.40;;;;;;;;;;5008051;28;20489;-46
2022/10/26 09:36:54;;;;;;;6.40;2.10;;;;;;;;;;5014022;28;20046;-46
2022/10/26 09:39:26;;;;;;;5.72;2.35;;;;;;;;;;5013594;28;20054;-46
2022/10/26 09:41:57;;;;;;;12.18;2.20;;;;;;;;;;5026687;28;20472;-48
2022/10/26 09:44:33;;;;;;;6.90;2.35;;;;;;;;;;5012689;28;20490;-47
2022/10/26 09:47:03;;;;;;;8.88;2.92;;;;;;;;;;5000968;28;20071;-46
2022/10/26 09:49:40;;;;;;;8.60;2.40;;;;;;;;;;5005574;28;20050;-45
2022/10/26 09:52:22;;;;;;;4.13;2.13;;;;;;;;;;5016165;28;20097;-48
2022/10/26 09:54:50;;;;;;;6.53;1.85;;;;;;;;;;5011829;28;20549;-45
2022/10/26 09:57:19;;;;;;;4.57;1.52;;;;;;;;;;5008351;28;20077;-46
2022/10/26 09:59:48;;;;;;;5.97;2.10;;;;;;;;;;5011893;28;20060;-46
2022/10/26 10:02:32;;;;;;;5.50;2.20;;;;;;;;;;5011467;28;20104;-45
2022/10/26 10:05:00;;;;;;;6.05;2.10;;;;;;;;;;5009332;28;20042;-45
2022/10/26 10:07:34;;;;;;;6.45;2.00;;;;;;;;;;5018811;28;20057;-44
2022/10/26 10:10:10;;;;;;;4.60;1.65;;;;;;;;;;5013703;28;20046;-45
2022/10/26 10:12:38;;;;;;;6.30;1.85;;;;;;;;;;5013239;28;20124;-46
2022/10/26 10:15:18;;;;;;;3.20;1.40;;;;;;;;;;5010813;28;20046;-46
2022/10/26 10:17:54;;;;;;;2.67;1.40;;;;;;;;;;5013486;28;20053;-45
2022/10/26 10:20:34;;;;;;;3.67;1.50;;;;;;;;;;5013073;28;20136;-44
2022/10/26 10:23:03;;;;;;;6.45;1.70;;;;;;;;;;5014487;28;20108;-45
2022/10/26 10:25:35;;;;;;;3.05;1.35;;;;;;;;;;5003630;28;20053;-45
2022/10/26 10:28:04;;;;;;;4.13;1.35;;;;;;;;;;4996769;28;20061;-44
2022/10/26 10:30:36;;;;;;;5.40;1.30;;;;;;;;;;5011258;28;20139;-44
2022/10/26 10:33:08;;;;;;;2.90;1.00;;;;;;;;;;5013343;28;20125;-46
2022/10/26 10:35:35;;;;;;;7.35;1.48;;;;;;;;;;5012633;28;20041;-47
2022/10/26 10:38:08;;;;;;;5.97;1.40;;;;;;;;;;5014375;28;20112;-44
2022/10/26 10:40:35;;;;;;;7.30;1.83;;;;;;;;;;5002701;28;20053;-46
2022/10/26 10:43:07;;;;;;;3.85;1.30;;;;;;;;;;5009675;28;20049;-46
2022/10/26 10:45:37;;;;;;;6.38;1.55;;;;;;;;;;5012857;28;20141;-45
2022/10/26 10:48:15;;;;;;;3.83;1.25;;;;;;;;;;5014658;28;20054;-46
2022/10/26 10:50:53;;;;;;;7.60;1.55;;;;;;;;;;5011962;28;20050;-48
2022/10/26 10:53:24;;;;;;;2.60;1.08;;;;;;;;;;5008542;28;20104;-47
2022/10/26 10:56:25;;;;;;;6.32;2.00;;;;;;;;;;4999765;28;20085;-49
2022/10/26 10:59:01;;;;;;;3.92;1.20;;;;;;;;;;4998678;28;20190;-48
2022/10/26 11:01:33;;;;;;;3.15;1.10;;;;;;;;;;5012070;28;20107;-45
2022/10/26 11:04:09;;;;;;;4.40;1.40;;;;;;;;;;4999739;28;20107;-46
2022/10/26 11:06:41;;;;;;;6.35;1.60;;;;;;;;;;5011786;28;20081;-44
2022/10/26 11:09:28;;;;;;;12.30;1.73;;;;;;;;;;5011687;28;20049;-47
2022/10/26 11:11:58;;;;;;;4.32;1.33;;;;;;;;;;5007230;28;20149;-43
2022/10/26 11:14:28;;;;;;;7.18;1.58;;;;;;;;;;4996152;28;20078;-45
2022/10/26 11:16:58;;;;;;;5.70;1.38;;;;;;;;;;5002512;28;20061;-46
2022/10/26 11:19:29;;;;;;;4.30;1.10;;;;;;;;;;5008410;28;20065;-47
2022/10/26 11:21:58;;;;;;;8.05;1.77;;;;;;;;;;4999417;28;20066;-47
2022/10/26 11:24:44;;;;;;;6.07;1.73;;;;;;;;;;5007036;28;20173;-48
2022/10/26 11:27:14;;;;;;;2.92;1.25;;;;;;;;;;4998694;28;20464;-43
2022/10/26 11:29:59;;;;;;;5.32;1.67;;;;;;;;;;4996429;28;20073;-45
2022/10/26 11:32:30;;;;;;;2.83;1.20;;;;;;;;;;5007679;28;20483;-45
2022/10/26 11:35:02;;;;;;;5.25;1.20;;;;;;;;;;5001201;28;20049;-45
2022/10/26 11:37:33;;;;;;;5.32;1.30;;;;;;;;;;5004971;28;20061;-45
2022/10/26 11:40:17;;;;;;;4.68;1.30;;;;;;;;;;5009192;28;20056;-44
2022/10/26 11:42:48;;;;;;;7.03;1.80;;;;;;;;;;5005304;28;20085;-46
2022/10/26 11:45:22;;;;;;;6.72;1.60;;;;;;;;;;5008656;28;20038;-45
2022/10/26 11:48:00;;;;;;;4.18;1.67;;;;;;;;;;5014096;28;20054;-44
2022/10/26 11:50:38;;;;;;;5.68;2.08;;;;;;;;;;5003319;28;20046;-44
2022/10/26 11:53:10;;;;;;;5.10;1.23;;;;;;;;;;5009710;28;20050;-47
2022/10/26 11:55:54;;;;;;;3.38;1.42;;;;;;;;;;5011942;28;20049;-45
2022/10/26 11:58:27;;;;;;;5.72;1.67;;;;;;;;;;5012323;28;20133;-45
2022/10/26 12:00:56;;;;;;;7.63;1.40;;;;;;;;;;5017823;28;20053;-46
2022/10/26 12:03:26;;;;;;;5.97;1.67;;;;;;;;;;5001412;28;20042;-44
2022/10/26 12:05:55;;;;;;;7.90;2.00;;;;;;;;;;5002307;28;20045;-48
2022/10/26 12:08:31;;;;;;;4.68;1.83;;;;;;;;;;5004352;28;20052;-44
2022/10/26 12:11:16;;;;;;;10.40;2.15;;;;;;;;;;5019209;28;20356;-46
2022/10/26 12:13:50;;;;;;;4.57;2.10;;;;;;;;;;5023727;28;20053;-45
2022/10/26 12:16:20;;;;;;;4.55;2.20;;;;;;;;;;5010260;28;20056;-44
2022/10/26 12:18:54;;;;;;;8.35;1.67;;;;;;;;;;4999742;28;20172;-46
2022/10/26 12:21:24;;;;;;;8.77;2.15;;;;;;;;;;5017474;28;20049;-47
2022/10/26 12:23:56;;;;;;;3.65;1.27;;;;;;;;;;5010684;28;20046;-46
2022/10/26 12:26:49;;;;;;;7.32;1.58;;;;;;;;;;5003778;28;20061;-44
2022/10/26 12:29:38;;;;;;;4.30;1.00;;;;;;;;;;5010797;28;20065;-44
2022/10/26 12:32:22;;;;;;;5.88;1.00;;;;;;;;;;5006356;28;20077;-47
2022/10/26 12:35:18;;;;;;;4.65;1.30;;;;;;;;;;4998835;28;20045;-44
2022/10/26 12:37:46;;;;;;;;;;;;;;;;;;5011039;28;20049;-44
2022/10/26 12:40:33;;;;;;;7.43;1.00;;;;;;;;;;5008074;28;20008;-44
2022/10/26 12:43:30;;;;;;;3.95;1.13;;;;;;;;;;5009764;28;20050;-44
2022/10/26 12:46:14;;;;;;;4.90;1.10;;;;;;;;;;5006899;28;20077;-44
2022/10/26 12:48:49;;;;;;;8.27;1.20;;;;;;;;;;4999160;28;20485;-46
2022/10/26 12:51:35;;;;;;;5.68;1.30;;;;;;;;;;5012487;28;20061;-45
2022/10/26 12:54:08;;;;;;;5.10;2.22;;;;;;;;;;5010242;28;20046;-46
2022/10/26 12:56:42;;;;;;;9.90;1.80;;;;;;;;;;5006325;28;20052;-45
2022/10/26 12:59:17;;;;;;;7.80;1.73;;;;;;;;;;4995328;28;20062;-45
2022/10/26 13:01:52;;;;;;;5.72;1.27;;;;;;;;;;5012415;28;20058;-46
2022/10/26 13:04:37;;;;;;;5.90;1.67;;;;;;;;;;5008738;28;20329;-44
2022/10/26 13:07:19;;;;;;;6.18;1.52;;;;;;;;;;5003728;28;20379;-46
2022/10/26 13:09:52;;;;;;;8.85;1.40;;;;;;;;;;5002766;28;20054;-46
2022/10/26 13:12:19;;;;;;;5.03;1.10;;;;;;;;;;5008985;28;20091;-47
2022/10/26 13:14:57;;;;;;;9.52;1.15;;;;;;;;;;4997858;28;20399;-48
2022/10/26 13:17:25;;;;;;;3.85;1.52;;;;;;;;;;5007456;28;20049;-46
2022/10/26 13:20:10;;;;;;;6.75;1.33;;;;;;;;;;5010026;28;20549;-47
2022/10/26 13:22:50;;;;;;;13.30;1.40;;;;;;;;;;5016431;28;20038;-48
2022/10/26 13:25:22;;;;;;;4.93;1.58;;;;;;;;;;5017843;28;20047;-47
2022/10/26 13:28:03;;;;;;;3.42;1.23;;;;;;;;;;4997074;28;20050;-48
2022/10/26 13:30:44;;;;;;;4.70;1.17;;;;;;;;;;5010137;28;20242;-47
2022/10/26 13:33:26;;;;;;;5.28;0.98;;;;;;;;;;5014848;28;20665;-48
2022/10/26 13:36:03;;;;;;;8.63;1.55;;;;;;;;;;5009354;28;20459;-47
2022/10/26 13:38:46;;;;;;;6.90;1.10;;;;;;;;;;5004187;28;20061;-47
2022/10/26 13:41:22;;;;;;;4.60;1.05;;;;;;;;;;4999541;28;20058;-47
2022/10/26 13:43:51;;;;;;;3.35;0.70;;;;;;;;;;5004785;28;20161;-46
2022/10/26 13:46:27;;;;;;;3.35;0.70;;;;;;;;;;5007080;28;20057;-45
2022/10/26 13:49:02;;;;;;;4.00;1.23;;;;;;;;;;5022250;28;20049;-46
2022/10/26 13:51:36;;;;;;;6.00;0.73;;;;;;;;;;5021320;28;20085;-45
2022/10/26 13:54:12;;;;;;;4.88;1.00;;;;;;;;;;5024856;28;20053;-45
2022/10/26 13:56:44;;;;;;;5.93;1.10;;;;;;;;;;5009086;28;20042;-45
2022/10/26 13:59:13;;;;;;;3.90;0.88;;;;;;;;;;4995810;28;20097;-46
2022/10/26 14:01:43;;;;;;;4.32;1.20;;;;;;;;;;5006632;28;20057;-45
2022/10/26 14:04:17;;;;;;;5.38;1.50;;;;;;;;;;5013955;28;20068;-46
2022/10/26 14:06:50;;;;;;;6.82;1.30;;;;;;;;;;4996711;28;20754;-45
2022/10/26 14:09:21;;;;;;;5.18;0.80;;;;;;;;;;4996036;28;20050;-47
2022/10/26 14:11:52;;;;;;;3.65;1.25;;;;;;;;;;4994878;28;20054;-47
2022/10/26 14:14:21;;;;;;;3.78;1.45;;;;;;;;;;5001295;28;20562;-45
2022/10/26 14:16:49;;;;;;;5.00;1.83;;;;;;;;;;5010912;28;20057;-48
2022/10/26 14:19:20;;;;;;;4.82;1.45;;;;;;;;;;5006111;28;20058;-47
2022/10/26 14:21:48;;;;;;;3.63;1.60;;;;;;;;;;5003367;28;20384;-51
2022/10/26 14:24:22;;;;;;;4.13;1.30;;;;;;;;;;5019530;28;20045;-51
2022/10/26 14:26:50;;;;;;;3.30;1.42;;;;;;;;;;5014363;28;20073;-49
2022/10/26 14:29:19;;;;;;;6.32;1.73;;;;;;;;;;5014028;28;20050;-47
2022/10/26 14:31:50;;;;;;;5.68;1.45;;;;;;;;;;5012586;28;20065;-47
2022/10/26 14:34:18;;;;;;;4.20;1.60;;;;;;;;;;5014606;28;20050;-46
2022/10/26 14:36:47;;;;;;;3.75;1.63;;;;;;;;;;5008486;28;20057;-47
2022/10/26 14:39:16;;;;;;;2.65;1.25;;;;;;;;;;5022422;28;20054;-46
2022/10/26 14:41:53;;;;;;;5.00;1.67;;;;;;;;;;5018626;28;20046;-47
2022/10/26 14:44:24;;;;;;;3.08;1.65;;;;;;;;;;5020242;28;20085;-46
2022/10/26 14:47:00;;;;;;;8.48;1.80;;;;;;;;;;5015370;28;20058;-49
2022/10/26 14:49:29;;;;;;;3.85;1.45;;;;;;;;;;5012995;28;20371;-48
2022/10/26 14:51:58;;;;;;;4.75;1.73;;;;;;;;;;5010714;28;20064;-48
2022/10/26 14:54:27;;;;;;;9.70;4.05;;;;;;;;;;5014231;28;20050;-48
2022/10/26 14:57:01;;;;;;;6.05;3.00;;;;;;;;;;5001705;28;20366;-48
2022/10/26 14:59:32;;;;;;;6.13;2.05;;;;;;;;;;5002752;28;20049;-51
2022/10/26 15:02:02;;;;;;;5.90;2.00;;;;;;;;;;5013926;28;20050;-48
2022/10/26 15:04:31;;;;;;;4.57;1.58;;;;;;;;;;5014364;28;20065;-48
2022/10/26 15:07:19;;;;;;;5.00;1.70;;;;;;;;;;5011344;28;20809;-52
2022/10/26 15:09:48;;;;;;;2.08;1.00;;;;;;;;;;5002716;28;20729;-48
2022/10/26 15:12:31;;;;;;;2.58;1.02;;;;;;;;;;5007027;28;20050;-49
2022/10/26 15:15:08;;;;;;;2.17;1.10;;;;;;;;;;5003829;28;20059;-48